sensor_id;sensor_type;location;lat;lon;timestamp;temperature;humidity
29855;DHT22;16733;48.738;9.106;2023-02-01T00:01:18;3.10;99.90
29855;DHT22;16733;48.738;9.106;2023-02-01T00:03:44;3.10;99.90
29855;DHT22;16733;48.738;9.106;2023-02-01T00:06:35;3.10;99.90
29855;DHT22;16733;48.738;9.106;2023-02-01T00:15:45;3.10;99.90
29855;DHT22;16733;48.738;9.106;2023-02-01T00:18:10;3.10;99.90
29855;DHT22;16733;48.738;9.106;2023-02-01T00:20:36;3.10;99.90
29855;DHT22;16733;48.738;9.106;2023-02-01T00:23:01;3.10;99.90
29855;DHT22;16733;48.738;9.106;2023-02-01T00:25:27;3.10;99.90
29855;DHT22;16733;48.738;9.106;2023-02-01T00:27:52;3.10;99.90
29855;DHT22;16733;48.738;9.106;2023-02-01T00:30:18;3.10;99.90
29855;DHT22;16733;48.738;9.106;2023-02-01T00:32:43;3.10;99.90
29855;DHT22;16733;48.738;9.106;2023-02-01T00:35:09;3.10;99.90
29855;DHT22;16733;48.738;9.106;2023-02-01T00:41:04;3.10;99.90
29855;DHT22;16733;48.738;9.106;2023-02-01T00:43:34;3.10;99.90
29855;DHT22;16733;48.738;9.106;2023-02-01T00:46:00;3.20;99.90
29855;DHT22;16733;48.738;9.106;2023-02-01T00:48:26;3.20;99.90
29855;DHT22;16733;48.738;9.106;2023-02-01T00:50:52;3.20;99.90
29855;DHT22;16733;48.738;9.106;2023-02-01T00:53:17;3.20;99.90
29855;DHT22;16733;48.738;9.106;2023-02-01T00:55:49;3.20;99.90
29855;DHT22;16733;48.738;9.106;2023-02-01T01:01:37;3.30;99.90
29855;DHT22;16733;48.738;9.106;2023-02-01T01:04:02;3.30;99.90
29855;DHT22;16733;48.738;9.106;2023-02-01T01:06:46;3.30;99.90
29855;DHT22;16733;48.738;9.106;2023-02-01T01:09:11;3.30;99.90
29855;DHT22;16733;48.738;9.106;2023-02-01T01:11:40;3.30;99.90
29855;DHT22;16733;48.738;9.106;2023-02-01T01:14:07;3.30;99.90
29855;DHT22;16733;48.738;9.106;2023-02-01T01:16:33;3.30;99.90
29855;DHT22;16733;48.738;9.106;2023-02-01T01:19:14;3.40;99.90
29855;DHT22;16733;48.738;9.106;2023-02-01T01:21:39;3.40;99.90
29855;DHT22;16733;48.738;9.106;2023-02-01T01:24:05;3.40;99.90
29855;DHT22;16733;48.738;9.106;2023-02-01T01:26:31;3.30;99.90
29855;DHT22;16733;48.738;9.106;2023-02-01T01:28:57;3.30;99.90
29855;DHT22;16733;48.738;9.106;2023-02-01T01:31:23;3.40;99.90
29855;DHT22;16733;48.738;9.106;2023-02-01T01:33:51;3.40;99.90
29855;DHT22;16733;48.738;9.106;2023-02-01T01:36:18;3.40;99.90
29855;DHT22;16733;48.738;9.106;2023-02-01T01:38:43;3.40;99.90
29855;DHT22;16733;48.738;9.106;2023-02-01T01:41:13;3.40;99.90
29855;DHT22;16733;48.738;9.106;2023-02-01T01:47:01;3.40;99.90
29855;DHT22;16733;48.738;9.106;2023-02-01T01:49:27;3.40;99.90
29855;DHT22;16733;48.738;9.106;2023-02-01T01:51:56;3.40;99.90
29855;DHT22;16733;48.738;9.106;2023-02-01T01:57:50;3.50;99.90
29855;DHT22;16733;48.738;9.106;2023-02-01T02:00:19;3.50;99.90
29855;DHT22;16733;48.738;9.106;2023-02-01T02:02:48;3.50;99.90
29855;DHT22;16733;48.738;9.106;2023-02-01T02:05:16;3.50;99.90
29855;DHT22;16733;48.738;9.106;2023-02-01T02:07:46;3.50;99.90
29855;DHT22;16733;48.738;9.106;2023-02-01T02:10:13;3.50;99.90
29855;DHT22;16733;48.738;9.106;2023-02-01T02:12:40;3.50;99.90
29855;DHT22;16733;48.738;9.106;2023-02-01T02:15:08;3.50;99.90
29855;DHT22;16733;48.738;9.106;2023-02-01T02:20:24;3.50;99.90
29855;DHT22;16733;48.738;9.106;2023-02-01T02:23:18;3.60;99.90
29855;DHT22;16733;48.738;9.106;2023-02-01T02:26:21;3.60;99.90
29855;DHT22;16733;48.738;9.106;2023-02-01T02:31:40;3.60;99.90
29855;DHT22;16733;48.738;9.106;2023-02-01T02:37:43;3.60;99.90
29855;DHT22;16733;48.738;9.106;2023-02-01T02:43:54;3.60;99.90
29855;DHT22;16733;48.738;9.106;2023-02-01T02:46:48;3.60;99.90
29855;DHT22;16733;48.738;9.106;2023-02-01T02:49:59;3.60;99.90
29855;DHT22;16733;48.738;9.106;2023-02-01T02:53:14;3.60;99.90
29855;DHT22;16733;48.738;9.106;2023-02-01T02:55:59;3.60;99.90
29855;DHT22;16733;48.738;9.106;2023-02-01T02:58:46;3.60;99.90
29855;DHT22;16733;48.738;9.106;2023-02-01T03:01:30;3.60;99.90
29855;DHT22;16733;48.738;9.106;2023-02-01T03:04:15;3.60;99.90
29855;DHT22;16733;48.738;9.106;2023-02-01T03:06:43;3.50;99.90
29855;DHT22;16733;48.738;9.106;2023-02-01T03:12:42;3.50;99.90
29855;DHT22;16733;48.738;9.106;2023-02-01T03:15:32;3.40;99.90
29855;DHT22;16733;48.738;9.106;2023-02-01T03:18:01;3.40;99.90
29855;DHT22;16733;48.738;9.106;2023-02-01T03:20:30;3.40;99.90
29855;DHT22;16733;48.738;9.106;2023-02-01T03:22:57;3.40;99.90
29855;DHT22;16733;48.738;9.106;2023-02-01T03:25:28;3.50;99.90
29855;DHT22;16733;48.738;9.106;2023-02-01T03:28:03;3.50;99.90
29855;DHT22;16733;48.738;9.106;2023-02-01T03:33:51;3.50;99.90
29855;DHT22;16733;48.738;9.106;2023-02-01T03:39:59;3.50;99.90
29855;DHT22;16733;48.738;9.106;2023-02-01T03:42:37;3.50;99.90
29855;DHT22;16733;48.738;9.106;2023-02-01T03:45:09;3.50;99.90
29855;DHT22;16733;48.738;9.106;2023-02-01T03:51:01;3.40;99.90
29855;DHT22;16733;48.738;9.106;2023-02-01T03:53:30;3.40;99.90
29855;DHT22;16733;48.738;9.106;2023-02-01T03:55:57;3.40;99.90
29855;DHT22;16733;48.738;9.106;2023-02-01T03:58:23;3.40;99.90
29855;DHT22;16733;48.738;9.106;2023-02-01T04:00:57;3.40;99.90
29855;DHT22;16733;48.738;9.106;2023-02-01T04:03:24;3.50;99.90
29855;DHT22;16733;48.738;9.106;2023-02-01T04:09:12;3.50;99.90
29855;DHT22;16733;48.738;9.106;2023-02-01T04:11:37;3.50;99.90
29855;DHT22;16733;48.738;9.106;2023-02-01T04:17:26;3.50;99.90
29855;DHT22;16733;48.738;9.106;2023-02-01T04:19:51;3.50;99.90
29855;DHT22;16733;48.738;9.106;2023-02-01T04:22:17;3.60;99.90
29855;DHT22;16733;48.738;9.106;2023-02-01T04:28:04;3.60;99.90
29855;DHT22;16733;48.738;9.106;2023-02-01T04:30:32;3.70;99.90
29855;DHT22;16733;48.738;9.106;2023-02-01T04:36:21;3.70;99.90
29855;DHT22;16733;48.738;9.106;2023-02-01T04:38:48;3.70;99.90
29855;DHT22;16733;48.738;9.106;2023-02-01T04:44:36;3.80;99.90
29855;DHT22;16733;48.738;9.106;2023-02-01T04:47:04;3.80;99.90
29855;DHT22;16733;48.738;9.106;2023-02-01T04:52:55;3.90;99.90
29855;DHT22;16733;48.738;9.106;2023-02-01T04:55:22;3.90;99.90
29855;DHT22;16733;48.738;9.106;2023-02-01T04:57:47;4.00;99.90
29855;DHT22;16733;48.738;9.106;2023-02-01T05:03:35;4.00;99.90
29855;DHT22;16733;48.738;9.106;2023-02-01T05:06:01;4.00;99.90
29855;DHT22;16733;48.738;9.106;2023-02-01T05:08:29;4.00;99.90
29855;DHT22;16733;48.738;9.106;2023-02-01T05:10:55;4.00;99.90
29855;DHT22;16733;48.738;9.106;2023-02-01T05:13:21;4.00;99.90
29855;DHT22;16733;48.738;9.106;2023-02-01T05:16:05;4.00;99.90
29855;DHT22;16733;48.738;9.106;2023-02-01T05:18:31;4.00;99.90
29855;DHT22;16733;48.738;9.106;2023-02-01T05:20:56;4.00;99.90
29855;DHT22;16733;48.738;9.106;2023-02-01T05:23:22;4.00;99.90
29855;DHT22;16733;48.738;9.106;2023-02-01T05:25:48;4.00;99.90
29855;DHT22;16733;48.738;9.106;2023-02-01T05:28:13;4.00;99.90
29855;DHT22;16733;48.738;9.106;2023-02-01T05:30:39;4.10;99.90
29855;DHT22;16733;48.738;9.106;2023-02-01T05:33:04;4.10;99.90
29855;DHT22;16733;48.738;9.106;2023-02-01T05:35:30;4.10;99.90
29855;DHT22;16733;48.738;9.106;2023-02-01T05:37:56;4.10;99.90
29855;DHT22;16733;48.738;9.106;2023-02-01T05:40:21;4.10;99.90
29855;DHT22;16733;48.738;9.106;2023-02-01T05:42:48;4.00;99.90
29855;DHT22;16733;48.738;9.106;2023-02-01T05:45:13;4.00;99.90
29855;DHT22;16733;48.738;9.106;2023-02-01T05:47:39;3.90;99.90
29855;DHT22;16733;48.738;9.106;2023-02-01T05:50:05;3.90;99.90
29855;DHT22;16733;48.738;9.106;2023-02-01T05:52:31;3.80;99.90
29855;DHT22;16733;48.738;9.106;2023-02-01T05:54:57;3.70;99.90
29855;DHT22;16733;48.738;9.106;2023-02-01T05:57:23;3.70;99.90
29855;DHT22;16733;48.738;9.106;2023-02-01T05:59:48;3.70;99.90
29855;DHT22;16733;48.738;9.106;2023-02-01T06:02:15;3.60;99.90
29855;DHT22;16733;48.738;9.106;2023-02-01T06:08:03;3.50;99.90
29855;DHT22;16733;48.738;9.106;2023-02-01T06:10:28;3.50;99.90
29855;DHT22;16733;48.738;9.106;2023-02-01T06:16:16;3.40;99.90
29855;DHT22;16733;48.738;9.106;2023-02-01T06:18:42;3.40;99.90
29855;DHT22;16733;48.738;9.106;2023-02-01T06:21:08;3.40;99.90
29855;DHT22;16733;48.738;9.106;2023-02-01T06:23:34;3.40;99.90
29855;DHT22;16733;48.738;9.106;2023-02-01T06:26:02;3.40;99.90
29855;DHT22;16733;48.738;9.106;2023-02-01T06:28:29;3.40;99.90
29855;DHT22;16733;48.738;9.106;2023-02-01T06:30:55;3.40;99.90
29855;DHT22;16733;48.738;9.106;2023-02-01T06:33:21;3.40;99.90
29855;DHT22;16733;48.738;9.106;2023-02-01T06:39:09;3.50;99.90
29855;DHT22;16733;48.738;9.106;2023-02-01T06:41:34;3.50;99.90
29855;DHT22;16733;48.738;9.106;2023-02-01T06:47:22;3.60;99.90
29855;DHT22;16733;48.738;9.106;2023-02-01T06:49:48;3.70;99.90
29855;DHT22;16733;48.738;9.106;2023-02-01T06:52:13;3.70;99.90
29855;DHT22;16733;48.738;9.106;2023-02-01T06:58:01;3.80;99.90
29855;DHT22;16733;48.738;9.106;2023-02-01T07:00:28;3.80;99.90
29855;DHT22;16733;48.738;9.106;2023-02-01T07:06:15;3.90;99.90
29855;DHT22;16733;48.738;9.106;2023-02-01T07:08:41;3.80;99.90
29855;DHT22;16733;48.738;9.106;2023-02-01T07:14:28;3.90;99.90
29855;DHT22;16733;48.738;9.106;2023-02-01T07:16:54;3.90;99.90
29855;DHT22;16733;48.738;9.106;2023-02-01T07:19:19;3.90;99.90
29855;DHT22;16733;48.738;9.106;2023-02-01T07:25:07;4.00;99.90
29855;DHT22;16733;48.738;9.106;2023-02-01T07:27:35;4.00;99.90
29855;DHT22;16733;48.738;9.106;2023-02-01T07:33:24;4.00;99.90
29855;DHT22;16733;48.738;9.106;2023-02-01T07:35:50;4.00;99.90
29855;DHT22;16733;48.738;9.106;2023-02-01T07:41:38;4.10;99.90
29855;DHT22;16733;48.738;9.106;2023-02-01T07:44:03;4.10;99.90
29855;DHT22;16733;48.738;9.106;2023-02-01T07:46:29;4.10;99.90
29855;DHT22;16733;48.738;9.106;2023-02-01T07:48:55;4.10;99.90
29855;DHT22;16733;48.738;9.106;2023-02-01T07:51:21;4.10;99.90
29855;DHT22;16733;48.738;9.106;2023-02-01T08:00:30;4.20;99.90
29855;DHT22;16733;48.738;9.106;2023-02-01T08:06:36;4.30;99.90
29855;DHT22;16733;48.738;9.106;2023-02-01T08:09:03;4.30;99.90
29855;DHT22;16733;48.738;9.106;2023-02-01T08:11:29;4.30;99.90
29855;DHT22;16733;48.738;9.106;2023-02-01T08:14:10;4.30;99.90
29855;DHT22;16733;48.738;9.106;2023-02-01T08:16:35;4.30;99.90
29855;DHT22;16733;48.738;9.106;2023-02-01T08:19:03;4.40;99.90
29855;DHT22;16733;48.738;9.106;2023-02-01T08:21:29;4.30;99.90
29855;DHT22;16733;48.738;9.106;2023-02-01T08:24:03;4.40;99.90
29855;DHT22;16733;48.738;9.106;2023-02-01T08:26:28;4.40;99.90
29855;DHT22;16733;48.738;9.106;2023-02-01T08:28:58;4.30;99.90
29855;DHT22;16733;48.738;9.106;2023-02-01T08:31:26;4.40;99.90
29855;DHT22;16733;48.738;9.106;2023-02-01T08:33:56;4.30;99.90
29855;DHT22;16733;48.738;9.106;2023-02-01T08:36:23;4.40;99.90
29855;DHT22;16733;48.738;9.106;2023-02-01T08:38:49;4.40;99.90
29855;DHT22;16733;48.738;9.106;2023-02-01T08:44:37;4.40;99.90
29855;DHT22;16733;48.738;9.106;2023-02-01T08:50:25;4.60;99.90
29855;DHT22;16733;48.738;9.106;2023-02-01T08:52:51;4.70;99.90
29855;DHT22;16733;48.738;9.106;2023-02-01T08:58:40;4.80;99.90
29855;DHT22;16733;48.738;9.106;2023-02-01T09:01:11;4.90;99.90
29855;DHT22;16733;48.738;9.106;2023-02-01T09:03:38;4.90;99.90
29855;DHT22;16733;48.738;9.106;2023-02-01T09:09:27;5.00;99.90
29855;DHT22;16733;48.738;9.106;2023-02-01T09:11:53;5.10;99.90
29855;DHT22;16733;48.738;9.106;2023-02-01T09:14:19;5.10;99.90
29855;DHT22;16733;48.738;9.106;2023-02-01T09:16:44;5.00;99.90
29855;DHT22;16733;48.738;9.106;2023-02-01T09:19:10;5.10;99.90
29855;DHT22;16733;48.738;9.106;2023-02-01T09:21:36;5.10;99.90
29855;DHT22;16733;48.738;9.106;2023-02-01T09:24:01;5.10;99.90
29855;DHT22;16733;48.738;9.106;2023-02-01T09:26:27;5.10;99.90
29855;DHT22;16733;48.738;9.106;2023-02-01T09:32:15;5.10;99.90
29855;DHT22;16733;48.738;9.106;2023-02-01T09:34:41;5.10;99.90
29855;DHT22;16733;48.738;9.106;2023-02-01T09:40:28;5.20;99.90
29855;DHT22;16733;48.738;9.106;2023-02-01T09:46:29;5.30;99.90
29855;DHT22;16733;48.738;9.106;2023-02-01T09:48:58;5.30;99.90
29855;DHT22;16733;48.738;9.106;2023-02-01T09:51:43;5.30;99.90
29855;DHT22;16733;48.738;9.106;2023-02-01T09:56:48;5.40;99.90
29855;DHT22;16733;48.738;9.106;2023-02-01T10:01:44;5.60;99.90
29855;DHT22;16733;48.738;9.106;2023-02-01T10:10:06;5.70;99.90
29855;DHT22;16733;48.738;9.106;2023-02-01T10:16:10;5.80;99.90
29855;DHT22;16733;48.738;9.106;2023-02-01T10:19:06;5.90;99.90
29855;DHT22;16733;48.738;9.106;2023-02-01T10:21:43;5.90;99.90
29855;DHT22;16733;48.738;9.106;2023-02-01T10:24:34;5.80;99.90
29855;DHT22;16733;48.738;9.106;2023-02-01T10:27:21;5.80;99.90
29855;DHT22;16733;48.738;9.106;2023-02-01T10:29:54;5.80;99.90
29855;DHT22;16733;48.738;9.106;2023-02-01T10:32:27;5.70;99.90
29855;DHT22;16733;48.738;9.106;2023-02-01T10:34:59;5.80;99.90
29855;DHT22;16733;48.738;9.106;2023-02-01T10:39:56;5.80;99.90
29855;DHT22;16733;48.738;9.106;2023-02-01T10:42:27;5.90;99.90
29855;DHT22;16733;48.738;9.106;2023-02-01T10:44:57;5.90;99.90
29855;DHT22;16733;48.738;9.106;2023-02-01T10:47:25;5.90;99.90
29855;DHT22;16733;48.738;9.106;2023-02-01T10:55:54;5.90;99.90
29855;DHT22;16733;48.738;9.106;2023-02-01T10:58:27;5.90;99.90
29855;DHT22;16733;48.738;9.106;2023-02-01T11:04:20;5.90;99.90
29855;DHT22;16733;48.738;9.106;2023-02-01T11:06:52;6.00;99.90
29855;DHT22;16733;48.738;9.106;2023-02-01T11:09:22;6.00;99.90
29855;DHT22;16733;48.738;9.106;2023-02-01T11:17:00;6.10;99.90
29855;DHT22;16733;48.738;9.106;2023-02-01T11:19:26;6.10;99.90
29855;DHT22;16733;48.738;9.106;2023-02-01T11:21:58;6.10;99.90
29855;DHT22;16733;48.738;9.106;2023-02-01T11:24:35;6.10;99.90
29855;DHT22;16733;48.738;9.106;2023-02-01T11:27:12;6.00;99.90
29855;DHT22;16733;48.738;9.106;2023-02-01T11:33:03;6.00;99.90
29855;DHT22;16733;48.738;9.106;2023-02-01T11:35:30;6.00;99.90
29855;DHT22;16733;48.738;9.106;2023-02-01T11:37:58;6.00;99.90
29855;DHT22;16733;48.738;9.106;2023-02-01T11:44:18;6.00;99.90
29855;DHT22;16733;48.738;9.106;2023-02-01T11:46:45;6.00;99.90
29855;DHT22;16733;48.738;9.106;2023-02-01T12:06:08;6.10;99.90
29855;DHT22;16733;48.738;9.106;2023-02-01T12:14:32;6.00;99.90
29855;DHT22;16733;48.738;9.106;2023-02-01T12:20:21;6.00;99.90
29855;DHT22;16733;48.738;9.106;2023-02-01T12:29:17;5.90;99.90
29855;DHT22;16733;48.738;9.106;2023-02-01T12:43:38;5.80;99.90
29855;DHT22;16733;48.738;9.106;2023-02-01T12:46:16;5.80;99.90
29855;DHT22;16733;48.738;9.106;2023-02-01T12:49:02;5.80;99.90
29855;DHT22;16733;48.738;9.106;2023-02-01T12:51:39;5.80;99.90
29855;DHT22;16733;48.738;9.106;2023-02-01T13:00:35;5.80;99.90
29855;DHT22;16733;48.738;9.106;2023-02-01T13:03:37;5.70;99.90
29855;DHT22;16733;48.738;9.106;2023-02-01T13:06:15;5.70;99.90
29855;DHT22;16733;48.738;9.106;2023-02-01T13:08:52;5.70;99.90
29855;DHT22;16733;48.738;9.106;2023-02-01T13:14:35;5.80;99.90
29855;DHT22;16733;48.738;9.106;2023-02-01T13:19:46;5.70;99.90
29855;DHT22;16733;48.738;9.106;2023-02-01T13:25:26;5.60;99.90
29855;DHT22;16733;48.738;9.106;2023-02-01T13:27:55;5.60;99.90
29855;DHT22;16733;48.738;9.106;2023-02-01T13:33:58;5.60;99.90
29855;DHT22;16733;48.738;9.106;2023-02-01T13:40:23;5.70;99.90
29855;DHT22;16733;48.738;9.106;2023-02-01T13:42:56;5.70;99.90
29855;DHT22;16733;48.738;9.106;2023-02-01T13:48:59;5.70;99.90
29855;DHT22;16733;48.738;9.106;2023-02-01T14:00:43;5.70;99.90
29855;DHT22;16733;48.738;9.106;2023-02-01T14:03:11;5.60;99.90
29855;DHT22;16733;48.738;9.106;2023-02-01T14:10:54;5.70;99.90
29855;DHT22;16733;48.738;9.106;2023-02-01T14:13:37;5.70;99.90
29855;DHT22;16733;48.738;9.106;2023-02-01T14:40:30;5.80;99.90
29855;DHT22;16733;48.738;9.106;2023-02-01T14:42:56;5.80;99.90
29855;DHT22;16733;48.738;9.106;2023-02-01T14:48:45;5.80;99.90
29855;DHT22;16733;48.738;9.106;2023-02-01T14:51:15;5.80;99.90
29855;DHT22;16733;48.738;9.106;2023-02-01T14:57:04;5.80;99.90
29855;DHT22;16733;48.738;9.106;2023-02-01T14:59:30;5.70;99.90
29855;DHT22;16733;48.738;9.106;2023-02-01T15:07:50;5.80;99.90
29855;DHT22;16733;48.738;9.106;2023-02-01T15:10:17;5.80;99.90
29855;DHT22;16733;48.738;9.106;2023-02-01T15:12:44;5.70;99.90
29855;DHT22;16733;48.738;9.106;2023-02-01T15:15:20;5.80;99.90
29855;DHT22;16733;48.738;9.106;2023-02-01T15:17:53;5.80;99.90
29855;DHT22;16733;48.738;9.106;2023-02-01T15:20:27;5.70;99.90
29855;DHT22;16733;48.738;9.106;2023-02-01T15:26:30;5.70;99.90
29855;DHT22;16733;48.738;9.106;2023-02-01T15:28:57;5.70;99.90
29855;DHT22;16733;48.738;9.106;2023-02-01T15:31:39;5.70;99.90
29855;DHT22;16733;48.738;9.106;2023-02-01T15:34:06;5.60;99.90
29855;DHT22;16733;48.738;9.106;2023-02-01T15:36:32;5.50;99.90
29855;DHT22;16733;48.738;9.106;2023-02-01T15:39:20;5.50;99.90
29855;DHT22;16733;48.738;9.106;2023-02-01T15:41:56;5.40;99.90
29855;DHT22;16733;48.738;9.106;2023-02-01T15:47:48;5.50;99.90
29855;DHT22;16733;48.738;9.106;2023-02-01T15:53:35;5.50;99.90
29855;DHT22;16733;48.738;9.106;2023-02-01T15:56:03;5.60;99.90
29855;DHT22;16733;48.738;9.106;2023-02-01T16:01:51;5.60;99.90
29855;DHT22;16733;48.738;9.106;2023-02-01T16:04:25;5.60;99.90
29855;DHT22;16733;48.738;9.106;2023-02-01T16:07:31;5.60;99.90
29855;DHT22;16733;48.738;9.106;2023-02-01T16:10:02;5.60;99.90
29855;DHT22;16733;48.738;9.106;2023-02-01T16:21:55;5.60;99.90
29855;DHT22;16733;48.738;9.106;2023-02-01T16:24:21;5.60;99.90
29855;DHT22;16733;48.738;9.106;2023-02-01T16:26:48;5.60;99.90
29855;DHT22;16733;48.738;9.106;2023-02-01T16:29:13;5.60;99.90
29855;DHT22;16733;48.738;9.106;2023-02-01T16:35:02;5.60;99.90
29855;DHT22;16733;48.738;9.106;2023-02-01T16:37:28;5.60;99.90
29855;DHT22;16733;48.738;9.106;2023-02-01T16:43:21;5.60;99.90
29855;DHT22;16733;48.738;9.106;2023-02-01T16:45:49;5.60;99.90
29855;DHT22;16733;48.738;9.106;2023-02-01T16:48:26;5.60;99.90
29855;DHT22;16733;48.738;9.106;2023-02-01T16:51:00;5.60;99.90
29855;DHT22;16733;48.738;9.106;2023-02-01T16:53:28;5.60;99.90
29855;DHT22;16733;48.738;9.106;2023-02-01T16:55:54;5.50;99.90
29855;DHT22;16733;48.738;9.106;2023-02-01T16:58:23;5.50;99.90
29855;DHT22;16733;48.738;9.106;2023-02-01T17:00:49;5.50;99.90
29855;DHT22;16733;48.738;9.106;2023-02-01T17:06:38;5.50;99.90
29855;DHT22;16733;48.738;9.106;2023-02-01T17:12:28;5.50;99.90
29855;DHT22;16733;48.738;9.106;2023-02-01T17:14:55;5.50;99.90
29855;DHT22;16733;48.738;9.106;2023-02-01T17:20:43;5.40;99.90
29855;DHT22;16733;48.738;9.106;2023-02-01T17:23:09;5.40;99.90
29855;DHT22;16733;48.738;9.106;2023-02-01T17:25:35;5.30;99.90
29855;DHT22;16733;48.738;9.106;2023-02-01T17:31:23;5.30;99.90
29855;DHT22;16733;48.738;9.106;2023-02-01T17:33:49;5.30;99.90
29855;DHT22;16733;48.738;9.106;2023-02-01T17:36:16;5.30;99.90
29855;DHT22;16733;48.738;9.106;2023-02-01T17:38:43;5.30;99.90
29855;DHT22;16733;48.738;9.106;2023-02-01T17:41:13;5.30;99.90
29855;DHT22;16733;48.738;9.106;2023-02-01T17:43:39;5.40;99.90
29855;DHT22;16733;48.738;9.106;2023-02-01T17:46:10;5.30;99.90
29855;DHT22;16733;48.738;9.106;2023-02-01T17:51:58;5.40;99.90
29855;DHT22;16733;48.738;9.106;2023-02-01T17:54:25;5.30;99.90
29855;DHT22;16733;48.738;9.106;2023-02-01T17:56:51;5.30;99.90
29855;DHT22;16733;48.738;9.106;2023-02-01T18:02:38;5.20;99.90
29855;DHT22;16733;48.738;9.106;2023-02-01T18:05:13;5.20;99.90
29855;DHT22;16733;48.738;9.106;2023-02-01T18:07:40;5.20;99.90
29855;DHT22;16733;48.738;9.106;2023-02-01T18:13:28;5.10;99.90
29855;DHT22;16733;48.738;9.106;2023-02-01T18:15:54;5.10;99.90
29855;DHT22;16733;48.738;9.106;2023-02-01T18:18:20;5.10;99.90
29855;DHT22;16733;48.738;9.106;2023-02-01T18:20:47;5.20;99.90
29855;DHT22;16733;48.738;9.106;2023-02-01T18:23:23;5.20;99.90
29855;DHT22;16733;48.738;9.106;2023-02-01T18:25:50;5.20;99.90
29855;DHT22;16733;48.738;9.106;2023-02-01T18:28:17;5.30;99.90
29855;DHT22;16733;48.738;9.106;2023-02-01T18:34:05;5.30;99.90
29855;DHT22;16733;48.738;9.106;2023-02-01T18:39:53;5.40;99.90
29855;DHT22;16733;48.738;9.106;2023-02-01T18:42:18;5.40;99.90
29855;DHT22;16733;48.738;9.106;2023-02-01T18:44:44;5.40;99.90
29855;DHT22;16733;48.738;9.106;2023-02-01T18:50:34;5.50;99.90
29855;DHT22;16733;48.738;9.106;2023-02-01T18:53:02;5.50;99.90
29855;DHT22;16733;48.738;9.106;2023-02-01T18:55:29;5.40;99.90
29855;DHT22;16733;48.738;9.106;2023-02-01T18:57:57;5.50;99.90
29855;DHT22;16733;48.738;9.106;2023-02-01T19:00:23;5.50;99.90
29855;DHT22;16733;48.738;9.106;2023-02-01T19:02:49;5.50;99.90
29855;DHT22;16733;48.738;9.106;2023-02-01T19:05:15;5.50;99.90
29855;DHT22;16733;48.738;9.106;2023-02-01T19:07:41;5.60;99.90
29855;DHT22;16733;48.738;9.106;2023-02-01T19:13:29;5.60;99.90
29855;DHT22;16733;48.738;9.106;2023-02-01T19:15:56;5.60;99.90
29855;DHT22;16733;48.738;9.106;2023-02-01T19:21:43;5.60;99.90
29855;DHT22;16733;48.738;9.106;2023-02-01T19:24:09;5.60;99.90
29855;DHT22;16733;48.738;9.106;2023-02-01T19:26:34;5.60;99.90
29855;DHT22;16733;48.738;9.106;2023-02-01T19:29:00;5.60;99.90
29855;DHT22;16733;48.738;9.106;2023-02-01T19:31:26;5.60;99.90
29855;DHT22;16733;48.738;9.106;2023-02-01T19:33:51;5.60;99.90
29855;DHT22;16733;48.738;9.106;2023-02-01T19:36:18;5.50;99.90
29855;DHT22;16733;48.738;9.106;2023-02-01T19:38:44;5.50;99.90
29855;DHT22;16733;48.738;9.106;2023-02-01T19:44:31;5.50;99.90
29855;DHT22;16733;48.738;9.106;2023-02-01T19:46:57;5.50;99.90
29855;DHT22;16733;48.738;9.106;2023-02-01T19:52:29;5.50;99.90
29855;DHT22;16733;48.738;9.106;2023-02-01T19:54:54;5.50;99.90
29855;DHT22;16733;48.738;9.106;2023-02-01T19:57:20;5.50;99.90
29855;DHT22;16733;48.738;9.106;2023-02-01T19:59:45;5.50;99.90
29855;DHT22;16733;48.738;9.106;2023-02-01T20:02:14;5.50;99.90
29855;DHT22;16733;48.738;9.106;2023-02-01T20:04:40;5.50;99.90
29855;DHT22;16733;48.738;9.106;2023-02-01T20:07:06;5.50;99.90
29855;DHT22;16733;48.738;9.106;2023-02-01T20:09:36;5.50;99.90
29855;DHT22;16733;48.738;9.106;2023-02-01T20:12:02;5.50;99.90
29855;DHT22;16733;48.738;9.106;2023-02-01T20:14:29;5.50;99.90
29855;DHT22;16733;48.738;9.106;2023-02-01T20:20:17;5.50;99.90
29855;DHT22;16733;48.738;9.106;2023-02-01T20:22:42;5.50;99.90
29855;DHT22;16733;48.738;9.106;2023-02-01T20:25:10;5.50;99.90
29855;DHT22;16733;48.738;9.106;2023-02-01T20:27:36;5.50;99.90
29855;DHT22;16733;48.738;9.106;2023-02-01T20:30:02;5.50;99.90
29855;DHT22;16733;48.738;9.106;2023-02-01T20:32:29;5.50;99.90
29855;DHT22;16733;48.738;9.106;2023-02-01T20:34:54;5.50;99.90
29855;DHT22;16733;48.738;9.106;2023-02-01T20:40:23;5.50;99.90
29855;DHT22;16733;48.738;9.106;2023-02-01T20:42:49;5.50;99.90
29855;DHT22;16733;48.738;9.106;2023-02-01T20:45:15;5.50;99.90
29855;DHT22;16733;48.738;9.106;2023-02-01T20:47:40;5.60;99.90
29855;DHT22;16733;48.738;9.106;2023-02-01T20:53:29;5.60;99.90
29855;DHT22;16733;48.738;9.106;2023-02-01T20:55:56;5.60;99.90
29855;DHT22;16733;48.738;9.106;2023-02-01T21:01:44;5.50;99.90
29855;DHT22;16733;48.738;9.106;2023-02-01T21:04:22;5.50;99.90
29855;DHT22;16733;48.738;9.106;2023-02-01T21:06:48;5.50;99.90
29855;DHT22;16733;48.738;9.106;2023-02-01T21:09:14;5.60;99.90
29855;DHT22;16733;48.738;9.106;2023-02-01T21:11:40;5.60;99.90
29855;DHT22;16733;48.738;9.106;2023-02-01T21:14:06;5.60;99.90
29855;DHT22;16733;48.738;9.106;2023-02-01T21:16:31;5.60;99.90
29855;DHT22;16733;48.738;9.106;2023-02-01T21:18:57;5.60;99.90
29855;DHT22;16733;48.738;9.106;2023-02-01T21:24:51;5.60;99.90
29855;DHT22;16733;48.738;9.106;2023-02-01T21:27:17;5.60;99.90
29855;DHT22;16733;48.738;9.106;2023-02-01T21:29:43;5.60;99.90
29855;DHT22;16733;48.738;9.106;2023-02-01T21:32:08;5.70;99.90
29855;DHT22;16733;48.738;9.106;2023-02-01T21:37:56;5.70;99.90
29855;DHT22;16733;48.738;9.106;2023-02-01T21:43:44;5.70;99.90
29855;DHT22;16733;48.738;9.106;2023-02-01T21:49:32;5.80;99.90
29855;DHT22;16733;48.738;9.106;2023-02-01T21:51:58;5.80;99.90
29855;DHT22;16733;48.738;9.106;2023-02-01T21:54:23;5.80;99.90
29855;DHT22;16733;48.738;9.106;2023-02-01T21:56:49;5.80;99.90
29855;DHT22;16733;48.738;9.106;2023-02-01T21:59:14;5.80;99.90
29855;DHT22;16733;48.738;9.106;2023-02-01T22:01:40;5.80;99.90
29855;DHT22;16733;48.738;9.106;2023-02-01T22:04:06;5.80;99.90
29855;DHT22;16733;48.738;9.106;2023-02-01T22:06:42;5.80;99.90
29855;DHT22;16733;48.738;9.106;2023-02-01T22:12:32;5.80;99.90
29855;DHT22;16733;48.738;9.106;2023-02-01T22:18:19;5.90;99.90
29855;DHT22;16733;48.738;9.106;2023-02-01T22:20:45;5.80;99.90
29855;DHT22;16733;48.738;9.106;2023-02-01T22:23:10;5.80;99.90
29855;DHT22;16733;48.738;9.106;2023-02-01T22:25:36;5.80;99.90
29855;DHT22;16733;48.738;9.106;2023-02-01T22:31:24;5.40;99.90
29855;DHT22;16733;48.738;9.106;2023-02-01T22:33:49;5.30;99.90
29855;DHT22;16733;48.738;9.106;2023-02-01T22:36:16;5.20;99.90
29855;DHT22;16733;48.738;9.106;2023-02-01T22:38:42;5.10;99.90
29855;DHT22;16733;48.738;9.106;2023-02-01T22:41:09;5.10;99.90
29855;DHT22;16733;48.738;9.106;2023-02-01T22:43:35;5.10;99.90
29855;DHT22;16733;48.738;9.106;2023-02-01T22:46:02;5.10;99.90
29855;DHT22;16733;48.738;9.106;2023-02-01T22:48:30;5.10;99.90